CheckWX is a tool to help pilots better visualize weather data.  It is not intended as a substitute for an official pre-flight weather briefing.

21:44:32 UTC

KCGI TAF
Cape Girardeau Regional Airport
Cape Girardeau, Missouri, USA
KCGI 201740Z 2018/2118 22012G23KT P6SM OVC050 FM202100 24008KT 6SM -SHRA BR OVC030 FM210200 25005KT P6SM SCT050 FM211100 31006KT P6SM BKN200 FM211600 34012KT P6SM SCT030

Mar-20@
18:00 UTC

Mar-20 @ 18:00 UTC

Mar-20@
21:00 UTC

Mar-20 @ 21:00 UTC

KCGI 201740Z 2018/2118 22012G23KT P6SM OVC050

Expired

Wind
  • 220° at 12 KTS
  • {Gusting to 23 KTS
Cloud Levels
  • Overcast at 5,000' AGL

Mar-20@
21:00 UTC

Mar-20 @ 21:00 UTC

Mar-21@
02:00 UTC

Mar-21 @ 02:00 UTC

FM202100 24008KT 6SM -SHRA BR OVC030

From

From Standard forecast or significant change

Wind
  • 240° at 8 KTS
Conditions
Light Rain, Mist
Cloud Levels
  • Overcast at 3,000' AGL

Mar-21@
02:00 UTC

Mar-21 @ 02:00 UTC

Mar-21@
11:00 UTC

Mar-21 @ 11:00 UTC

FM210200 25005KT P6SM SCT050

From

From Standard forecast or significant change

Wind
  • 250° at 5 KTS
Cloud Levels
  • Scattered at 5,000' AGL

Mar-21@
11:00 UTC

Mar-21 @ 11:00 UTC

Mar-21@
16:00 UTC

Mar-21 @ 16:00 UTC

FM211100 31006KT P6SM BKN200

From

From Standard forecast or significant change

Wind
  • 310° at 6 KTS
Cloud Levels
  • Broken at 20,000' AGL

Mar-21@
16:00 UTC

Mar-21 @ 16:00 UTC

Mar-21@
18:00 UTC

Mar-21 @ 18:00 UTC

FM211600 34012KT P6SM SCT030

From

From Standard forecast or significant change

Wind
  • 340° at 12 KTS
Cloud Levels
  • Scattered at 3,000' AGL